Time;durP1;ratioP1;P1;durP2;ratioP2;P2;SDS_P1;SDS_P2;PMS_P1;PMS_P2;Temp;Humidity;BMP_temperature;BMP_pressure;BME280_temperature;BME280_humidity;BME280_pressure;Samples;Min_cycle;Max_cycle;Signal;HPM_P1;HPM_P2
2023/08/05 00:01:09;;;;;;;5.20;3.00;;;;;;;;;;5092223;28;20024;-86
2023/08/05 00:03:34;;;;;;;6.00;3.08;;;;;;;;;;5091168;28;20031;-87
2023/08/05 00:06:00;;;;;;;11.35;4.35;;;;;;;;;;5090740;28;20031;-86
2023/08/05 00:08:25;;;;;;;6.07;3.45;;;;;;;;;;5092265;28;20365;-86
2023/08/05 00:10:50;;;;;;;5.10;3.60;;;;;;;;;;5092138;28;20024;-86
2023/08/05 00:13:16;;;;;;;6.80;3.72;;;;;;;;;;5090836;28;20022;-83
2023/08/05 00:15:42;;;;;;;6.18;3.83;;;;;;;;;;5088326;28;20028;-86
2023/08/05 00:18:08;;;;;;;7.13;4.07;;;;;;;;;;5077218;28;20060;-87
2023/08/05 00:20:34;;;;;;;4.47;3.30;;;;;;;;;;5081487;28;20046;-86
2023/08/05 00:22:59;;;;;;;6.03;3.20;;;;;;;;;;5088392;28;20024;-87
2023/08/05 00:25:25;;;;;;;4.72;3.20;;;;;;;;;;5083775;28;20035;-86
2023/08/05 00:27:50;;;;;;;5.25;3.40;;;;;;;;;;5091128;28;20020;-87
2023/08/05 00:30:15;;;;;;;6.38;4.38;;;;;;;;;;5091622;28;20488;-86
2023/08/05 00:32:41;;;;;;;15.77;5.40;;;;;;;;;;5090840;28;20032;-87
2023/08/05 00:35:07;;;;;;;8.13;5.00;;;;;;;;;;5092207;28;20020;-75
2023/08/05 00:37:33;;;;;;;8.82;4.85;;;;;;;;;;5091688;28;20015;-75
2023/08/05 00:40:00;;;;;;;6.78;4.38;;;;;;;;;;5092982;28;20494;-75
2023/08/05 00:42:29;;;;;;;7.95;4.45;;;;;;;;;;5090029;28;20020;-76
2023/08/05 00:44:54;;;;;;;7.07;4.15;;;;;;;;;;5091843;28;20024;-76
2023/08/05 00:47:20;;;;;;;6.43;4.45;;;;;;;;;;5090546;28;20027;-75
2023/08/05 00:49:49;;;;;;;6.07;4.05;;;;;;;;;;5091717;28;20523;-75
2023/08/05 00:52:16;;;;;;;6.70;3.90;;;;;;;;;;5090026;28;20028;-76
2023/08/05 00:54:42;;;;;;;6.30;4.20;;;;;;;;;;5091470;28;20425;-75
2023/08/05 00:57:10;;;;;;;8.60;3.70;;;;;;;;;;5093711;28;20032;-76
2023/08/05 00:59:35;;;;;;;5.95;3.30;;;;;;;;;;5093415;28;20048;-76
2023/08/05 01:02:01;;;;;;;6.15;3.80;;;;;;;;;;5093982;28;20062;-75
2023/08/05 01:04:26;;;;;;;6.57;3.83;;;;;;;;;;5094936;28;20023;-75
2023/08/05 01:06:53;;;;;;;7.72;4.53;;;;;;;;;;5086733;28;20020;-75
2023/08/05 01:09:18;;;;;;;7.45;3.97;;;;;;;;;;5092845;28;20107;-75
2023/08/05 01:11:44;;;;;;;5.93;3.72;;;;;;;;;;5093319;28;20098;-75
2023/08/05 01:14:09;;;;;;;6.32;4.30;;;;;;;;;;5097241;28;20521;-75
2023/08/05 01:16:35;;;;;;;6.65;4.20;;;;;;;;;;5091076;28;20046;-76
2023/08/05 01:19:03;;;;;;;6.60;3.75;;;;;;;;;;5099149;28;20028;-77
2023/08/05 01:21:36;;;;;;;6.97;3.90;;;;;;;;;;5076011;28;20043;-75
2023/08/05 01:24:08;;;;;;;;;;;;;;;;;;5091362;28;20024;-75
2023/08/05 01:26:34;;;;;;;7.10;3.83;;;;;;;;;;5094996;28;19919;-75
2023/08/05 01:29:02;;;;;;;7.30;4.00;;;;;;;;;;5093543;28;20028;-76
2023/08/05 01:31:29;;;;;;;5.38;3.65;;;;;;;;;;5093221;28;20160;-76
2023/08/05 01:33:54;;;;;;;7.28;3.90;;;;;;;;;;5093431;28;20023;-75
2023/08/05 01:36:20;;;;;;;6.40;3.97;;;;;;;;;;5093366;28;20020;-76
2023/08/05 01:38:47;;;;;;;5.85;3.85;;;;;;;;;;5088116;28;20108;-76
2023/08/05 01:41:14;;;;;;;6.15;3.97;;;;;;;;;;5094428;28;20471;-83
2023/08/05 01:43:39;;;;;;;6.45;4.00;;;;;;;;;;5093248;28;20028;-84
2023/08/05 01:46:05;;;;;;;6.65;4.05;;;;;;;;;;5076422;28;20025;-84
2023/08/05 01:48:30;;;;;;;6.40;4.05;;;;;;;;;;5085805;28;20023;-84
2023/08/05 01:50:55;;;;;;;6.65;3.88;;;;;;;;;;5093537;28;20030;-83
2023/08/05 01:53:21;;;;;;;8.07;4.25;;;;;;;;;;5092999;28;20028;-83
2023/08/05 01:55:46;;;;;;;5.43;3.80;;;;;;;;;;5094602;28;20479;-84
2023/08/05 01:58:11;;;;;;;6.10;3.80;;;;;;;;;;5088773;28;20110;-84
2023/08/05 02:00:37;;;;;;;7.00;4.47;;;;;;;;;;5093399;28;20083;-84
2023/08/05 02:03:02;;;;;;;5.85;4.43;;;;;;;;;;5093121;28;20028;-84
2023/08/05 02:05:28;;;;;;;5.82;3.83;;;;;;;;;;5090818;28;20032;-84
2023/08/05 02:07:53;;;;;;;6.28;3.75;;;;;;;;;;5086072;28;20076;-82
2023/08/05 02:10:19;;;;;;;5.32;3.88;;;;;;;;;;5085168;28;20601;-84
2023/08/05 02:12:44;;;;;;;7.07;3.88;;;;;;;;;;5094033;28;20020;-84
2023/08/05 02:15:10;;;;;;;5.65;4.22;;;;;;;;;;5093066;28;20077;-83
2023/08/05 02:17:35;;;;;;;7.57;4.03;;;;;;;;;;5087626;28;20353;-84
2023/08/05 02:20:01;;;;;;;8.30;4.22;;;;;;;;;;5091983;28;20077;-84
2023/08/05 02:22:26;;;;;;;7.35;4.05;;;;;;;;;;5087112;28;20024;-84
2023/08/05 02:24:51;;;;;;;5.43;4.10;;;;;;;;;;5086750;28;20020;-84
2023/08/05 02:27:17;;;;;;;8.13;4.55;;;;;;;;;;5088672;28;20468;-84
2023/08/05 02:29:42;;;;;;;6.07;4.28;;;;;;;;;;5079327;28;20054;-84
2023/08/05 02:32:08;;;;;;;5.45;4.15;;;;;;;;;;5084408;28;20039;-83
2023/08/05 02:34:35;;;;;;;6.47;3.97;;;;;;;;;;5091560;28;20074;-84
2023/08/05 02:37:01;;;;;;;5.70;4.43;;;;;;;;;;5088612;28;20111;-84
2023/08/05 02:39:26;;;;;;;9.18;4.85;;;;;;;;;;5093644;28;20055;-84
2023/08/05 02:41:52;;;;;;;8.00;4.80;;;;;;;;;;5093549;28;20398;-83
2023/08/05 02:44:17;;;;;;;8.25;4.93;;;;;;;;;;5093388;28;20024;-83
2023/08/05 02:46:43;;;;;;;7.10;4.70;;;;;;;;;;5092321;28;20035;-84
2023/08/05 02:49:08;;;;;;;8.27;4.65;;;;;;;;;;5093570;28;20059;-83
2023/08/05 02:51:36;;;;;;;7.32;4.75;;;;;;;;;;5091954;28;20092;-84
2023/08/05 02:54:01;;;;;;;9.27;4.47;;;;;;;;;;5093354;28;20391;-75
2023/08/05 02:56:27;;;;;;;7.35;4.55;;;;;;;;;;5098639;28;20024;-75
2023/08/05 02:58:52;;;;;;;6.15;4.50;;;;;;;;;;5093293;28;20356;-77
2023/08/05 03:01:17;;;;;;;7.38;5.07;;;;;;;;;;5092563;28;20030;-75
2023/08/05 03:03:43;;;;;;;6.57;4.43;;;;;;;;;;5091657;28;20032;-75
2023/08/05 03:06:08;;;;;;;7.68;3.92;;;;;;;;;;5091739;28;20031;-75
2023/08/05 03:08:33;;;;;;;6.72;4.35;;;;;;;;;;5090250;28;20479;-76
2023/08/05 03:11:00;;;;;;;6.05;4.30;;;;;;;;;;5091864;28;20443;-75
2023/08/05 03:13:26;;;;;;;6.07;3.85;;;;;;;;;;5092691;28;20024;-76
2023/08/05 03:15:53;;;;;;;5.93;4.13;;;;;;;;;;5090924;28;20464;-75
2023/08/05 03:18:19;;;;;;;5.63;4.07;;;;;;;;;;5092587;28;20024;-76
2023/08/05 03:20:45;;;;;;;6.28;4.47;;;;;;;;;;5082883;28;20077;-75
2023/08/05 03:23:11;;;;;;;8.32;3.85;;;;;;;;;;5091606;28;20433;-75
2023/08/05 03:25:37;;;;;;;6.28;4.15;;;;;;;;;;5089008;28;20020;-76
2023/08/05 03:28:02;;;;;;;5.82;3.75;;;;;;;;;;5091493;28;20024;-75
2023/08/05 03:30:28;;;;;;;5.65;3.67;;;;;;;;;;5086882;28;20024;-75
2023/08/05 03:32:53;;;;;;;5.53;3.42;;;;;;;;;;5093533;28;20031;-76
2023/08/05 03:35:19;;;;;;;6.13;3.33;;;;;;;;;;5094068;28;20031;-75
2023/08/05 03:37:45;;;;;;;6.45;3.70;;;;;;;;;;5083681;28;20031;-75
2023/08/05 03:40:11;;;;;;;5.53;3.47;;;;;;;;;;5091496;28;20102;-75
2023/08/05 03:42:37;;;;;;;6.53;4.05;;;;;;;;;;5091279;28;20052;-75
2023/08/05 03:45:04;;;;;;;5.82;3.20;;;;;;;;;;5096133;28;20437;-75
2023/08/05 03:47:30;;;;;;;5.57;3.50;;;;;;;;;;5086958;28;20044;-75
2023/08/05 03:49:55;;;;;;;6.13;3.90;;;;;;;;;;5088628;28;20100;-76
2023/08/05 03:52:21;;;;;;;6.47;3.80;;;;;;;;;;5085190;28;20058;-75
2023/08/05 03:54:46;;;;;;;4.95;3.40;;;;;;;;;;5098062;28;20027;-75
2023/08/05 03:57:12;;;;;;;5.20;3.50;;;;;;;;;;5088340;28;20449;-76
2023/08/05 03:59:37;;;;;;;6.20;3.70;;;;;;;;;;5088406;28;20033;-76
2023/08/05 04:02:03;;;;;;;5.82;3.45;;;;;;;;;;5092198;28;20395;-75
2023/08/05 04:04:29;;;;;;;5.22;3.75;;;;;;;;;;5082645;28;20024;-86
2023/08/05 04:06:54;;;;;;;5.53;3.58;;;;;;;;;;5084962;28;20021;-86
2023/08/05 04:09:20;;;;;;;5.28;3.60;;;;;;;;;;5090960;28;20107;-87
2023/08/05 04:11:48;;;;;;;6.07;3.47;;;;;;;;;;5082921;28;20024;-85
2023/08/05 04:14:16;;;;;;;5.68;3.47;;;;;;;;;;5091058;28;20020;-85
2023/08/05 04:16:42;;;;;;;4.88;3.42;;;;;;;;;;5086018;28;20031;-87
2023/08/05 04:19:08;;;;;;;6.65;3.80;;;;;;;;;;5086031;28;20395;-86
2023/08/05 04:21:40;;;;;;;4.65;3.28;;;;;;;;;;5090760;28;20509;-87
2023/08/05 04:24:09;;;;;;;4.47;3.40;;;;;;;;;;5090947;28;20050;-87
2023/08/05 04:26:35;;;;;;;5.35;3.30;;;;;;;;;;5090884;28;20062;-87
2023/08/05 04:29:01;;;;;;;5.20;3.65;;;;;;;;;;5076737;28;20024;-87
2023/08/05 04:31:27;;;;;;;5.85;3.22;;;;;;;;;;5079701;28;20561;-86
2023/08/05 04:33:52;;;;;;;5.35;3.20;;;;;;;;;;5093400;28;20062;-86
2023/08/05 04:36:17;;;;;;;6.05;3.33;;;;;;;;;;5095084;28;20081;-87
2023/08/05 04:38:43;;;;;;;6.43;3.33;;;;;;;;;;5093314;28;20060;-87
2023/08/05 04:41:08;;;;;;;6.07;3.78;;;;;;;;;;5093666;28;20020;-87
2023/08/05 04:43:33;;;;;;;6.40;3.50;;;;;;;;;;5087676;28;20051;-88
2023/08/05 04:45:59;;;;;;;5.88;3.80;;;;;;;;;;5090254;28;20026;-85
2023/08/05 04:48:24;;;;;;;6.10;3.30;;;;;;;;;;5088209;28;20016;-86
2023/08/05 04:50:49;;;;;;;4.93;3.13;;;;;;;;;;5095883;28;20051;-87
2023/08/05 04:53:15;;;;;;;6.43;3.60;;;;;;;;;;5080808;28;20048;-86
2023/08/05 04:55:41;;;;;;;4.85;3.45;;;;;;;;;;5094357;28;20486;-85
2023/08/05 04:58:08;;;;;;;5.07;3.42;;;;;;;;;;5094174;28;20460;-87
2023/08/05 05:00:34;;;;;;;5.30;3.75;;;;;;;;;;5094328;28;20024;-87
2023/08/05 05:02:59;;;;;;;6.32;3.60;;;;;;;;;;5094074;28;20460;-86
2023/08/05 05:05:25;;;;;;;7.35;3.92;;;;;;;;;;5094955;28;20388;-87
2023/08/05 05:07:50;;;;;;;5.57;3.30;;;;;;;;;;5094365;28;20081;-86
2023/08/05 05:10:17;;;;;;;7.18;3.80;;;;;;;;;;5094386;28;20062;-87
2023/08/05 05:12:42;;;;;;;5.78;3.72;;;;;;;;;;5095016;28;20460;-87
2023/08/05 05:15:08;;;;;;;5.32;3.80;;;;;;;;;;5094112;28;20023;-76
2023/08/05 05:17:34;;;;;;;7.65;4.55;;;;;;;;;;5093654;28;20031;-76
2023/08/05 05:20:04;;;;;;;5.32;3.80;;;;;;;;;;5095173;28;20016;-76
2023/08/05 05:22:30;;;;;;;6.85;4.15;;;;;;;;;;5090321;28;20019;-75
2023/08/05 05:24:55;;;;;;;7.05;4.18;;;;;;;;;;5091314;28;20023;-76
2023/08/05 05:27:20;;;;;;;5.57;3.72;;;;;;;;;;5091694;28;20022;-76
2023/08/05 05:29:46;;;;;;;7.40;4.35;;;;;;;;;;5088811;28;20480;-75
2023/08/05 05:32:11;;;;;;;5.85;4.00;;;;;;;;;;5089128;28;20024;-75
2023/08/05 05:34:37;;;;;;;7.25;3.90;;;;;;;;;;5089754;28;20020;-75
2023/08/05 05:37:02;;;;;;;6.32;4.10;;;;;;;;;;5091412;28;20066;-76
2023/08/05 05:39:28;;;;;;;6.03;3.83;;;;;;;;;;5086189;28;20020;-76
2023/08/05 05:41:55;;;;;;;5.57;3.72;;;;;;;;;;5094389;28;20020;-76
2023/08/05 05:44:21;;;;;;;7.20;3.92;;;;;;;;;;5092820;28;20020;-75
2023/08/05 05:46:47;;;;;;;5.82;4.03;;;;;;;;;;5093273;28;20035;-76
2023/08/05 05:49:12;;;;;;;6.10;3.78;;;;;;;;;;5089096;28;20016;-76
2023/08/05 05:51:38;;;;;;;4.97;3.65;;;;;;;;;;5101522;28;20384;-77
2023/08/05 05:54:03;;;;;;;6.55;4.65;;;;;;;;;;5094374;28;20020;-76
2023/08/05 05:56:28;;;;;;;6.95;4.45;;;;;;;;;;5100521;28;20085;-76
2023/08/05 05:58:54;;;;;;;6.50;3.88;;;;;;;;;;5096226;28;20035;-76
2023/08/05 06:01:20;;;;;;;5.78;3.97;;;;;;;;;;5094756;28;20027;-77
2023/08/05 06:03:46;;;;;;;7.43;4.30;;;;;;;;;;5095794;28;20099;-76
2023/08/05 06:06:12;;;;;;;5.60;3.60;;;;;;;;;;5074722;28;20059;-76
2023/08/05 06:08:38;;;;;;;5.88;4.18;;;;;;;;;;5083850;28;20068;-76
2023/08/05 06:11:04;;;;;;;8.30;4.43;;;;;;;;;;5083526;28;20362;-76
2023/08/05 06:13:30;;;;;;;6.32;4.10;;;;;;;;;;5093609;28;20046;-76
2023/08/05 06:15:55;;;;;;;6.95;4.40;;;;;;;;;;5087973;28;20467;-76
2023/08/05 06:18:21;;;;;;;5.78;3.58;;;;;;;;;;5085672;28;20108;-76
2023/08/05 06:20:48;;;;;;;7.15;4.10;;;;;;;;;;5086308;28;20027;-76
2023/08/05 06:23:13;;;;;;;6.38;4.60;;;;;;;;;;5092604;28;20027;-75
2023/08/05 06:25:39;;;;;;;6.53;4.47;;;;;;;;;;5092872;28;20028;-86
2023/08/05 06:28:04;;;;;;;6.35;4.05;;;;;;;;;;5092438;28;20027;-87
2023/08/05 06:30:29;;;;;;;8.52;4.68;;;;;;;;;;5092467;28;20023;-86
2023/08/05 06:32:55;;;;;;;6.78;4.50;;;;;;;;;;5095447;28;20484;-85
2023/08/05 06:35:21;;;;;;;8.43;4.60;;;;;;;;;;5082998;28;20028;-87
2023/08/05 06:37:46;;;;;;;6.25;5.00;;;;;;;;;;5088626;28;20024;-87
2023/08/05 06:40:12;;;;;;;6.85;4.97;;;;;;;;;;5092484;28;20174;-88
2023/08/05 06:42:37;;;;;;;8.50;5.45;;;;;;;;;;5093339;28;20066;-87
2023/08/05 06:45:03;;;;;;;8.18;5.18;;;;;;;;;;5087403;28;20032;-87
2023/08/05 06:47:31;;;;;;;8.30;4.82;;;;;;;;;;5092212;28;20028;-86
2023/08/05 06:50:00;;;;;;;8.00;5.30;;;;;;;;;;5093377;28;20165;-88
2023/08/05 06:52:25;;;;;;;8.45;5.78;;;;;;;;;;5092806;28;20397;-87
2023/08/05 06:54:50;;;;;;;5.88;4.15;;;;;;;;;;5091947;28;20024;-87
2023/08/05 06:57:16;;;;;;;6.43;4.18;;;;;;;;;;5093471;28;20039;-88
2023/08/05 06:59:41;;;;;;;9.85;5.75;;;;;;;;;;5088342;28;20388;-87
2023/08/05 07:02:07;;;;;;;8.15;5.00;;;;;;;;;;5108617;28;20027;-88
2023/08/05 07:04:32;;;;;;;7.15;4.63;;;;;;;;;;5091577;28;20421;-87
2023/08/05 07:06:58;;;;;;;10.45;5.97;;;;;;;;;;5091614;28;20030;-87
2023/08/05 07:09:23;;;;;;;7.18;5.40;;;;;;;;;;5091831;28;20023;-88
2023/08/05 07:11:49;;;;;;;8.13;5.05;;;;;;;;;;5091757;28;20032;-86
2023/08/05 07:14:14;;;;;;;6.88;4.60;;;;;;;;;;5090956;28;20507;-89
2023/08/05 07:16:40;;;;;;;6.90;4.05;;;;;;;;;;5092250;28;20028;-88
2023/08/05 07:19:05;;;;;;;7.72;5.40;;;;;;;;;;5091198;28;20426;-88
2023/08/05 07:21:30;;;;;;;8.38;6.10;;;;;;;;;;5092187;28;20028;-86
2023/08/05 07:23:56;;;;;;;9.15;6.47;;;;;;;;;;5074832;28;20028;-88
2023/08/05 07:26:21;;;;;;;9.70;6.15;;;;;;;;;;5099570;28;20023;-82
2023/08/05 07:28:48;;;;;;;8.68;6.00;;;;;;;;;;5095433;28;20024;-88
2023/08/05 07:31:15;;;;;;;8.25;5.88;;;;;;;;;;5083242;28;20034;-89
2023/08/05 07:33:42;;;;;;;9.80;6.07;;;;;;;;;;5086442;28;20149;-84
2023/08/05 07:36:12;;;;;;;7.28;5.65;;;;;;;;;;5092782;28;20062;-85
2023/08/05 07:38:42;;;;;;;9.45;6.60;;;;;;;;;;5098375;28;20473;-84
2023/08/05 07:41:07;;;;;;;9.68;5.80;;;;;;;;;;5081390;28;20021;-86
2023/08/05 07:43:35;;;;;;;8.80;6.05;;;;;;;;;;5089128;28;20035;-85
2023/08/05 07:46:02;;;;;;;8.98;5.82;;;;;;;;;;5091295;28;20073;-85
2023/08/05 07:48:32;;;;;;;7.65;5.45;;;;;;;;;;5091108;28;20038;-84
2023/08/05 07:50:59;;;;;;;9.88;5.82;;;;;;;;;;5091277;28;20028;-85
2023/08/05 07:53:24;;;;;;;12.63;5.78;;;;;;;;;;5088182;28;20039;-85
2023/08/05 07:55:50;;;;;;;7.72;5.55;;;;;;;;;;5094066;28;20024;-84
2023/08/05 07:58:17;;;;;;;9.45;5.93;;;;;;;;;;5091099;28;20078;-85
2023/08/05 08:00:44;;;;;;;7.80;5.78;;;;;;;;;;5081660;28;20111;-85
2023/08/05 08:03:09;;;;;;;8.88;5.68;;;;;;;;;;5087325;28;20398;-84
2023/08/05 08:05:34;;;;;;;9.05;5.35;;;;;;;;;;5093415;28;20024;-85
2023/08/05 08:08:00;;;;;;;9.07;6.00;;;;;;;;;;5095298;28;20031;-85
2023/08/05 08:10:25;;;;;;;10.35;6.07;;;;;;;;;;5100951;28;20027;-85
2023/08/05 08:12:54;;;;;;;9.27;5.80;;;;;;;;;;5088789;28;20020;-85
2023/08/05 08:15:20;;;;;;;7.07;5.32;;;;;;;;;;5088180;28;20028;-86
2023/08/05 08:17:45;;;;;;;8.95;5.63;;;;;;;;;;5081041;28;20472;-85
2023/08/05 08:20:11;;;;;;;8.95;5.53;;;;;;;;;;5092754;28;20024;-85
2023/08/05 08:22:36;;;;;;;7.47;5.13;;;;;;;;;;5094897;28;20023;-85
2023/08/05 08:25:02;;;;;;;8.30;5.35;;;;;;;;;;5095100;28;20024;-84
2023/08/05 08:27:28;;;;;;;6.57;4.63;;;;;;;;;;5093629;28;20009;-85
2023/08/05 08:29:53;;;;;;;6.70;4.30;;;;;;;;;;5095055;28;20024;-86
2023/08/05 08:32:18;;;;;;;8.25;4.43;;;;;;;;;;5094758;28;20034;-86
2023/08/05 08:34:44;;;;;;;7.82;4.18;;;;;;;;;;5096222;28;20020;-86
2023/08/05 08:37:09;;;;;;;6.32;4.32;;;;;;;;;;5093161;28;20036;-86
2023/08/05 08:39:35;;;;;;;5.80;4.20;;;;;;;;;;5094661;28;20378;-86
2023/08/05 08:42:00;;;;;;;8.23;4.40;;;;;;;;;;5093622;28;20449;-86
2023/08/05 08:44:27;;;;;;;7.53;4.57;;;;;;;;;;5094567;28;20020;-89
2023/08/05 08:46:53;;;;;;;5.88;4.00;;;;;;;;;;5091444;28;20366;-90
2023/08/05 08:49:19;;;;;;;6.22;4.32;;;;;;;;;;5092139;28;20084;-87
2023/08/05 08:51:47;;;;;;;5.50;3.65;;;;;;;;;;5093513;28;20025;-89
2023/08/05 08:54:17;;;;;;;5.60;3.50;;;;;;;;;;5096727;28;20024;-89
2023/08/05 08:56:43;;;;;;;6.15;3.80;;;;;;;;;;5090878;28;20021;-89
2023/08/05 08:59:08;;;;;;;5.28;3.97;;;;;;;;;;5083446;28;20507;-89
2023/08/05 09:01:39;;;;;;;5.72;3.88;;;;;;;;;;5094566;28;20440;-89
2023/08/05 09:04:06;;;;;;;4.95;3.47;;;;;;;;;;5096851;28;20483;-88
2023/08/05 09:06:32;;;;;;;5.40;3.50;;;;;;;;;;5096143;28;20028;-88
2023/08/05 09:08:58;;;;;;;5.85;3.97;;;;;;;;;;5096483;28;20034;-90
2023/08/05 09:11:23;;;;;;;6.95;4.60;;;;;;;;;;5094550;28;20020;-89
2023/08/05 09:13:50;;;;;;;6.90;4.00;;;;;;;;;;5095400;28;20034;-89
2023/08/05 09:16:15;;;;;;;6.63;3.88;;;;;;;;;;5094157;28;20024;-89
2023/08/05 09:19:01;;;;;;;6.18;3.58;;;;;;;;;;5100698;28;20085;-89
2023/08/05 09:21:28;;;;;;;7.13;4.00;;;;;;;;;;5087351;28;20089;-89
2023/08/05 09:23:55;;;;;;;5.80;3.80;;;;;;;;;;5096485;28;20020;-88
2023/08/05 09:26:30;;;;;;;6.22;3.75;;;;;;;;;;5093872;28;20020;-88
2023/08/05 09:28:57;;;;;;;6.10;3.97;;;;;;;;;;5095459;28;20028;-90
2023/08/05 09:31:22;;;;;;;5.38;4.10;;;;;;;;;;5095552;28;20016;-87
2023/08/05 09:33:48;;;;;;;5.13;3.88;;;;;;;;;;5095452;28;20024;-90
2023/08/05 09:36:14;;;;;;;5.60;3.90;;;;;;;;;;5093690;28;20024;-88
2023/08/05 09:38:40;;;;;;;7.63;4.10;;;;;;;;;;5094769;28;20028;-90
2023/08/05 09:41:07;;;;;;;6.47;4.22;;;;;;;;;;5096558;28;20028;-90
2023/08/05 09:43:34;;;;;;;5.95;3.75;;;;;;;;;;5095340;28;20028;-89
2023/08/05 09:46:04;;;;;;;5.78;3.65;;;;;;;;;;5095925;28;20429;-91
2023/08/05 09:48:40;;;;;;;4.57;3.47;;;;;;;;;;5094545;28;20027;-90
2023/08/05 09:51:06;;;;;;;5.95;3.35;;;;;;;;;;5095032;28;20028;-91
2023/08/05 09:53:35;;;;;;;5.53;3.45;;;;;;;;;;5086298;28;20028;-77
2023/08/05 09:56:02;;;;;;;6.10;3.67;;;;;;;;;;5096881;28;20157;-77
2023/08/05 09:58:27;;;;;;;4.68;3.25;;;;;;;;;;5090320;28;20107;-76
2023/08/05 10:00:54;;;;;;;5.00;3.22;;;;;;;;;;5092842;28;20119;-76
2023/08/05 10:03:21;;;;;;;4.35;2.88;;;;;;;;;;5092437;28;20031;-76
2023/08/05 10:05:47;;;;;;;4.55;2.80;;;;;;;;;;5088495;28;20395;-76
2023/08/05 10:08:13;;;;;;;4.65;2.55;;;;;;;;;;5094054;28;20367;-77
2023/08/05 10:10:40;;;;;;;4.50;2.53;;;;;;;;;;5093112;28;20108;-76
2023/08/05 10:13:09;;;;;;;4.43;2.90;;;;;;;;;;5092808;28;20055;-76
2023/08/05 10:15:41;;;;;;;4.13;2.70;;;;;;;;;;5088580;28;20020;-76
2023/08/05 10:18:10;;;;;;;4.60;2.75;;;;;;;;;;5090927;28;20016;-76
2023/08/05 10:20:37;;;;;;;5.40;2.35;;;;;;;;;;5092801;28;20032;-76
2023/08/05 10:23:13;;;;;;;4.22;2.85;;;;;;;;;;5090130;28;20077;-77
2023/08/05 10:25:39;;;;;;;3.40;2.33;;;;;;;;;;5087761;28;20043;-76
2023/08/05 10:28:04;;;;;;;5.28;2.60;;;;;;;;;;5093178;28;20055;-76
2023/08/05 10:30:30;;;;;;;5.47;2.80;;;;;;;;;;5091444;28;20056;-77
2023/08/05 10:32:57;;;;;;;4.20;2.55;;;;;;;;;;5094765;28;20036;-76
2023/08/05 10:35:40;;;;;;;3.80;2.65;;;;;;;;;;5095542;28;20028;-77
2023/08/05 10:38:07;;;;;;;3.92;2.92;;;;;;;;;;5091891;28;20476;-77
2023/08/05 10:40:51;;;;;;;4.20;2.65;;;;;;;;;;5088152;28;20111;-77
2023/08/05 10:43:27;;;;;;;4.78;2.70;;;;;;;;;;5094461;28;20035;-77
2023/08/05 10:45:53;;;;;;;4.07;2.70;;;;;;;;;;5089779;28;20070;-77
2023/08/05 10:48:18;;;;;;;4.30;2.80;;;;;;;;;;5083923;28;20484;-76
2023/08/05 10:50:44;;;;;;;6.88;3.33;;;;;;;;;;5089462;28;20418;-76
2023/08/05 10:53:12;;;;;;;4.75;3.10;;;;;;;;;;5092910;28;20479;-76
2023/08/05 10:55:46;;;;;;;5.28;3.10;;;;;;;;;;5083124;28;20081;-77
2023/08/05 10:58:12;;;;;;;5.57;3.55;;;;;;;;;;5091070;28;20048;-76
2023/08/05 11:00:42;;;;;;;6.25;3.58;;;;;;;;;;5092011;28;20044;-76
2023/08/05 11:03:40;;;;;;;6.63;3.67;;;;;;;;;;5091464;28;20032;-76
2023/08/05 11:06:05;;;;;;;5.88;3.60;;;;;;;;;;5094215;28;20052;-90
2023/08/05 11:08:32;;;;;;;6.28;3.78;;;;;;;;;;5095432;28;20463;-88
2023/08/05 11:11:02;;;;;;;10.68;4.28;;;;;;;;;;5095137;28;20081;-89
2023/08/05 11:13:32;;;;;;;7.80;4.40;;;;;;;;;;5095692;28;20091;-88
2023/08/05 11:16:08;;;;;;;8.57;4.60;;;;;;;;;;5095816;28;20020;-89
2023/08/05 11:18:34;;;;;;;6.03;4.30;;;;;;;;;;5087589;28;20016;-90
2023/08/05 11:21:01;;;;;;;8.50;4.28;;;;;;;;;;5093785;28;20403;-89
2023/08/05 11:23:28;;;;;;;6.15;3.95;;;;;;;;;;5094298;28;20107;-87
2023/08/05 11:25:53;;;;;;;5.68;4.25;;;;;;;;;;5096236;28;20114;-89
2023/08/05 11:28:20;;;;;;;8.73;4.32;;;;;;;;;;5083434;28;20518;-88
2023/08/05 11:30:45;;;;;;;6.85;3.90;;;;;;;;;;5090757;28;20111;-89
2023/08/05 11:33:11;;;;;;;6.88;4.18;;;;;;;;;;5094267;28;20062;-87
2023/08/05 11:35:46;;;;;;;5.88;3.90;;;;;;;;;;5089462;28;20027;-89
2023/08/05 11:38:16;;;;;;;6.28;4.18;;;;;;;;;;5092125;28;20047;-89
2023/08/05 11:40:44;;;;;;;6.90;4.20;;;;;;;;;;5094985;28;20407;-88
2023/08/05 11:43:12;;;;;;;6.97;3.92;;;;;;;;;;5091868;28;20484;-89
2023/08/05 11:45:40;;;;;;;5.53;3.80;;;;;;;;;;5089931;28;20424;-89
2023/08/05 11:48:06;;;;;;;6.10;3.30;;;;;;;;;;5086940;28;20103;-89
2023/08/05 11:50:36;;;;;;;7.43;3.15;;;;;;;;;;5096357;28;20125;-89
2023/08/05 11:53:05;;;;;;;5.53;3.03;;;;;;;;;;5088734;28;20113;-88
2023/08/05 11:55:35;;;;;;;6.40;3.40;;;;;;;;;;5093540;28;20514;-86
2023/08/05 11:58:04;;;;;;;4.82;3.38;;;;;;;;;;5089607;28;20027;-88
2023/08/05 12:00:30;;;;;;;8.63;3.60;;;;;;;;;;5090166;28;20498;-89
2023/08/05 12:02:55;;;;;;;5.57;3.20;;;;;;;;;;5092381;28;20036;-89
2023/08/05 12:05:22;;;;;;;4.43;2.75;;;;;;;;;;5094777;28;20430;-89
2023/08/05 12:07:48;;;;;;;4.95;3.15;;;;;;;;;;5091083;28;20161;-86
2023/08/05 12:10:16;;;;;;;5.10;3.08;;;;;;;;;;5094892;28;20458;-88
2023/08/05 12:12:46;;;;;;;5.25;3.22;;;;;;;;;;5089342;28;20415;-90
2023/08/05 12:15:14;;;;;;;4.22;2.92;;;;;;;;;;5087668;28;20020;-90
2023/08/05 12:17:47;;;;;;;4.38;2.75;;;;;;;;;;5075681;28;20055;-88
2023/08/05 12:20:15;;;;;;;4.28;2.70;;;;;;;;;;5095866;28;20027;-88
2023/08/05 12:22:41;;;;;;;4.57;2.60;;;;;;;;;;5084870;28;20356;-88
2023/08/05 12:25:06;;;;;;;3.78;2.10;;;;;;;;;;5072523;28;20055;-88
2023/08/05 12:27:32;;;;;;;4.70;2.33;;;;;;;;;;5089798;28;20025;-89
2023/08/05 12:29:57;;;;;;;6.65;2.13;;;;;;;;;;5085616;28;20032;-89
2023/08/05 12:32:22;;;;;;;3.88;2.17;;;;;;;;;;5077061;28;20379;-88
2023/08/05 12:34:48;;;;;;;4.05;2.25;;;;;;;;;;5091250;28;20378;-88
2023/08/05 12:37:13;;;;;;;3.70;2.10;;;;;;;;;;5085408;28;20035;-89
2023/08/05 12:39:39;;;;;;;3.88;1.98;;;;;;;;;;5092837;28;20024;-89
2023/08/05 12:42:05;;;;;;;5.18;2.50;;;;;;;;;;5085787;28;20051;-89
2023/08/05 12:44:31;;;;;;;3.53;2.08;;;;;;;;;;5091604;28;20057;-89
2023/08/05 12:46:56;;;;;;;5.15;2.33;;;;;;;;;;5063884;28;20028;-89
2023/08/05 12:49:21;;;;;;;2.90;2.00;;;;;;;;;;5088720;28;20372;-83
2023/08/05 12:51:47;;;;;;;4.22;2.30;;;;;;;;;;5078092;28;20032;-89
2023/08/05 12:54:13;;;;;;;5.30;2.20;;;;;;;;;;5096718;28;20032;-89
2023/08/05 12:56:38;;;;;;;4.65;1.85;;;;;;;;;;5094015;28;20074;-90
2023/08/05 12:59:03;;;;;;;4.05;2.30;;;;;;;;;;5096133;28;20024;-90
2023/08/05 13:01:29;;;;;;;3.97;2.25;;;;;;;;;;5091901;28;20020;-90
2023/08/05 13:03:54;;;;;;;3.75;2.20;;;;;;;;;;5096539;28;20024;-87
2023/08/05 13:06:21;;;;;;;4.97;2.30;;;;;;;;;;5081772;28;20023;-90
2023/08/05 13:08:46;;;;;;;6.50;2.70;;;;;;;;;;5116439;28;20016;-85
2023/08/05 13:11:11;;;;;;;5.10;2.40;;;;;;;;;;5088639;28;20012;-91
2023/08/05 13:13:37;;;;;;;3.47;2.35;;;;;;;;;;5097416;28;20027;-89
2023/08/05 13:16:02;;;;;;;4.65;2.33;;;;;;;;;;5096096;28;20100;-90
2023/08/05 13:18:28;;;;;;;5.40;2.20;;;;;;;;;;5097197;28;20016;-88
2023/08/05 13:20:53;;;;;;;4.05;2.30;;;;;;;;;;5095018;28;20020;-89
2023/08/05 13:23:18;;;;;;;4.65;2.03;;;;;;;;;;5095947;28;20260;-89
2023/08/05 13:25:44;;;;;;;3.70;2.28;;;;;;;;;;5095580;28;20016;-91
2023/08/05 13:28:09;;;;;;;4.35;2.00;;;;;;;;;;5100570;28;20098;-91
2023/08/05 13:30:35;;;;;;;3.20;2.30;;;;;;;;;;5103928;28;20476;-91
2023/08/05 13:33:00;;;;;;;4.63;2.50;;;;;;;;;;5093752;28;20114;-91
2023/08/05 13:35:26;;;;;;;5.63;2.42;;;;;;;;;;5092287;28;20020;-91
2023/08/05 13:37:51;;;;;;;3.88;1.95;;;;;;;;;;5097250;28;20024;-91
2023/08/05 13:40:16;;;;;;;3.90;2.00;;;;;;;;;;5094529;28;20024;-91
2023/08/05 13:42:42;;;;;;;3.35;2.10;;;;;;;;;;5095908;28;20479;-91
2023/08/05 13:45:08;;;;;;;3.75;2.20;;;;;;;;;;5090346;28;20032;-90
2023/08/05 13:47:33;;;;;;;4.13;2.40;;;;;;;;;;5092235;28;20475;-89
2023/08/05 13:49:59;;;;;;;4.22;2.08;;;;;;;;;;5087036;28;20032;-91
2023/08/05 13:52:24;;;;;;;4.55;2.80;;;;;;;;;;5091320;28;20157;-91
2023/08/05 13:54:49;;;;;;;5.35;2.80;;;;;;;;;;5095040;28;20024;-91
2023/08/05 13:57:15;;;;;;;2.92;1.83;;;;;;;;;;5095334;28;20020;-91
2023/08/05 13:59:40;;;;;;;3.83;2.25;;;;;;;;;;5095472;28;20566;-92
2023/08/05 14:02:06;;;;;;;5.65;2.40;;;;;;;;;;5096746;28;20030;-90
2023/08/05 14:04:31;;;;;;;3.42;2.05;;;;;;;;;;5095498;28;20099;-89
2023/08/05 14:06:56;;;;;;;5.28;2.53;;;;;;;;;;5094803;28;20028;-88
2023/08/05 14:09:22;;;;;;;4.30;2.47;;;;;;;;;;5088160;28;20027;-88
2023/08/05 14:11:47;;;;;;;5.55;2.20;;;;;;;;;;5098393;28;20016;-91
2023/08/05 14:14:12;;;;;;;3.45;2.20;;;;;;;;;;5087096;28;20512;-91
2023/08/05 14:16:38;;;;;;;3.72;2.13;;;;;;;;;;5093232;28;20110;-88
2023/08/05 14:19:06;;;;;;;3.90;2.08;;;;;;;;;;5093412;28;20491;-91
2023/08/05 14:21:31;;;;;;;5.88;2.50;;;;;;;;;;5093334;28;20498;-89
2023/08/05 14:23:57;;;;;;;4.13;2.42;;;;;;;;;;5089135;28;20024;-89
2023/08/05 14:26:23;;;;;;;4.05;2.50;;;;;;;;;;5083509;28;20024;-90
2023/08/05 14:28:48;;;;;;;3.72;2.33;;;;;;;;;;5088746;28;20145;-91
2023/08/05 14:31:14;;;;;;;2.78;1.90;;;;;;;;;;5079766;28;20091;-91
2023/08/05 14:33:39;;;;;;;4.53;2.30;;;;;;;;;;5093056;28;20471;-75
2023/08/05 14:36:14;;;;;;;3.83;2.28;;;;;;;;;;5093811;28;20103;-75
2023/08/05 14:38:39;;;;;;;4.05;1.83;;;;;;;;;;5084986;28;20403;-75